Time;durP1;ratioP1;P1;durP2;ratioP2;P2;SDS_P1;SDS_P2;PMS_P1;PMS_P2;Temp;Humidity;BMP_temperature;BMP_pressure;BME280_temperature;BME280_humidity;BME280_pressure;Samples;Min_cycle;Max_cycle;Signal;HPM_P1;HPM_P2
2020/12/19 00:00:29;;;;;;;11.57;7.93;;;;;;;;;;5079016;28;20804;-73
2020/12/19 00:02:57;;;;;;;12.50;7.70;;;;;;;;;;5078183;28;20899;-74
2020/12/19 00:05:24;;;;;;;12.90;7.27;;;;;;;;;;5078335;28;20531;-73
2020/12/19 00:07:51;;;;;;;17.10;7.50;;;;;;;;;;5077959;28;20473;-74
2020/12/19 00:10:19;;;;;;;14.10;7.63;;;;;;;;;;5078772;28;20821;-74
2020/12/19 00:12:46;;;;;;;11.57;8.57;;;;;;;;;;5078898;28;20897;-74
2020/12/19 00:15:14;;;;;;;10.00;7.00;;;;;;;;;;5078162;28;20479;-74
2020/12/19 00:17:41;;;;;;;9.43;7.03;;;;;;;;;;5076774;28;20485;-74
2020/12/19 00:20:10;;;;;;;7.80;6.63;;;;;;;;;;5078210;28;20468;-73
2020/12/19 00:22:37;;;;;;;9.10;7.97;;;;;;;;;;5077752;28;20469;-74
2020/12/19 00:25:05;;;;;;;8.87;7.27;;;;;;;;;;5088893;28;20526;-74
2020/12/19 00:27:32;;;;;;;13.47;7.97;;;;;;;;;;5098407;28;20452;-74
2020/12/19 00:29:59;;;;;;;13.07;7.60;;;;;;;;;;5098267;28;20498;-74
2020/12/19 00:32:27;;;;;;;11.63;8.10;;;;;;;;;;5097939;28;20448;-74
2020/12/19 00:34:54;;;;;;;15.77;8.40;;;;;;;;;;5098085;28;20875;-74
2020/12/19 00:37:23;;;;;;;14.43;8.53;;;;;;;;;;5097516;28;20495;-74
2020/12/19 00:39:50;;;;;;;16.83;8.60;;;;;;;;;;5079829;28;20473;-75
2020/12/19 00:42:17;;;;;;;11.73;8.53;;;;;;;;;;5076982;28;20468;-74
2020/12/19 00:44:45;;;;;;;12.10;8.53;;;;;;;;;;5077265;28;20473;-74
2020/12/19 00:47:12;;;;;;;12.13;8.67;;;;;;;;;;5077642;28;20475;-74
2020/12/19 00:49:39;;;;;;;13.53;9.17;;;;;;;;;;5076943;28;20457;-74
2020/12/19 00:52:06;;;;;;;14.97;8.97;;;;;;;;;;5077422;28;20451;-73
2020/12/19 00:54:35;;;;;;;11.17;8.70;;;;;;;;;;5077036;28;20469;-74
2020/12/19 00:57:05;;;;;;;11.47;8.43;;;;;;;;;;5076805;28;20554;-74
2020/12/19 00:59:32;;;;;;;10.80;8.00;;;;;;;;;;5077216;28;20488;-73
2020/12/19 01:01:59;;;;;;;15.20;10.33;;;;;;;;;;5077524;28;20452;-74
2020/12/19 01:04:27;;;;;;;14.03;10.30;;;;;;;;;;5077526;28;20463;-75
2020/12/19 01:06:54;;;;;;;17.47;8.50;;;;;;;;;;5077320;28;20472;-74
2020/12/19 01:09:22;;;;;;;14.70;11.00;;;;;;;;;;5076994;28;20461;-74
2020/12/19 01:11:51;;;;;;;16.70;10.27;;;;;;;;;;5076893;28;20467;-74
2020/12/19 01:14:18;;;;;;;13.30;8.97;;;;;;;;;;5077654;28;20468;-74
2020/12/19 01:16:48;;;;;;;13.07;10.30;;;;;;;;;;5077107;28;20511;-74
2020/12/19 01:19:18;;;;;;;18.30;10.80;;;;;;;;;;5077579;28;20469;-74
2020/12/19 01:21:46;;;;;;;14.93;10.10;;;;;;;;;;5077561;28;20467;-74
2020/12/19 01:24:13;;;;;;;13.27;9.20;;;;;;;;;;5076991;28;20460;-74
2020/12/19 01:26:40;;;;;;;14.07;9.50;;;;;;;;;;5077334;28;20468;-74
2020/12/19 01:29:08;;;;;;;15.70;10.50;;;;;;;;;;5076981;28;20461;-74
2020/12/19 01:31:36;;;;;;;13.60;10.13;;;;;;;;;;5075535;28;20764;-74
2020/12/19 01:34:03;;;;;;;18.33;11.00;;;;;;;;;;5077493;28;20468;-74
2020/12/19 01:36:30;;;;;;;15.10;10.47;;;;;;;;;;5077410;28;20464;-74
2020/12/19 01:38:58;;;;;;;16.70;11.33;;;;;;;;;;5077175;28;20489;-73
2020/12/19 01:41:27;;;;;;;19.83;11.07;;;;;;;;;;5076470;28;20929;-74
2020/12/19 01:43:55;;;;;;;16.87;11.50;;;;;;;;;;5076814;28;20460;-74
2020/12/19 01:46:28;;;;;;;18.47;11.83;;;;;;;;;;5076438;28;20468;-74
2020/12/19 01:48:58;;;;;;;19.20;12.00;;;;;;;;;;5076038;28;20472;-73
2020/12/19 01:51:25;;;;;;;18.77;11.87;;;;;;;;;;5076088;28;20936;-73
2020/12/19 01:53:53;;;;;;;14.70;10.47;;;;;;;;;;5077096;28;20465;-74
2020/12/19 01:56:25;;;;;;;17.00;11.07;;;;;;;;;;5076177;28;20457;-74
2020/12/19 01:58:52;;;;;;;18.17;13.30;;;;;;;;;;5076140;28;20489;-74
2020/12/19 02:01:20;;;;;;;17.03;11.57;;;;;;;;;;5076365;28;20457;-74
2020/12/19 02:03:48;;;;;;;17.60;12.47;;;;;;;;;;5076429;28;20469;-74
2020/12/19 02:06:16;;;;;;;17.10;11.87;;;;;;;;;;5075757;28;20472;-74
2020/12/19 02:08:43;;;;;;;16.23;10.87;;;;;;;;;;5076347;28;20534;-74
2020/12/19 02:11:10;;;;;;;18.80;12.43;;;;;;;;;;5076867;28;20815;-74
2020/12/19 02:13:37;;;;;;;19.10;12.30;;;;;;;;;;5076941;28;20468;-74
2020/12/19 02:16:05;;;;;;;20.57;13.17;;;;;;;;;;5076438;28;20461;-75
2020/12/19 02:18:34;;;;;;;18.73;13.37;;;;;;;;;;5076220;28;20558;-75
2020/12/19 02:21:02;;;;;;;19.30;13.57;;;;;;;;;;5076548;28;20464;-74
2020/12/19 02:23:30;;;;;;;17.17;11.40;;;;;;;;;;5076449;28;20535;-74
2020/12/19 02:25:58;;;;;;;18.20;12.70;;;;;;;;;;5077117;28;20903;-74
2020/12/19 02:28:25;;;;;;;21.30;12.47;;;;;;;;;;5076344;28;21007;-74
2020/12/19 02:30:52;;;;;;;21.07;12.70;;;;;;;;;;5076762;28;20465;-74
2020/12/19 02:33:20;;;;;;;17.90;13.93;;;;;;;;;;5075653;28;20728;-73
2020/12/19 02:35:50;;;;;;;23.13;14.57;;;;;;;;;;5076438;28;20453;-75
2020/12/19 02:38:17;;;;;;;18.73;12.73;;;;;;;;;;5076064;28;20562;-74
2020/12/19 02:40:45;;;;;;;21.07;12.60;;;;;;;;;;5076302;28;20461;-74
2020/12/19 02:43:15;;;;;;;22.30;13.60;;;;;;;;;;5075946;28;20778;-74
2020/12/19 02:45:46;;;;;;;18.30;12.37;;;;;;;;;;5075802;28;20468;-74
2020/12/19 02:48:38;;;;;;;21.47;13.40;;;;;;;;;;5076081;28;20457;-74
2020/12/19 02:51:05;;;;;;;18.73;13.50;;;;;;;;;;5057375;28;20456;-74
2020/12/19 02:53:32;;;;;;;21.90;14.07;;;;;;;;;;5075842;28;20856;-74
2020/12/19 02:56:02;;;;;;;22.40;12.07;;;;;;;;;;5075800;28;20460;-74
2020/12/19 02:58:29;;;;;;;19.03;12.80;;;;;;;;;;5076460;28;20912;-73
2020/12/19 03:00:57;;;;;;;21.33;14.90;;;;;;;;;;5075804;28;20461;-74
2020/12/19 03:03:24;;;;;;;21.47;15.17;;;;;;;;;;5075362;28;20471;-74
2020/12/19 03:05:51;;;;;;;21.00;14.70;;;;;;;;;;5075754;28;20478;-74
2020/12/19 03:08:18;;;;;;;23.60;15.47;;;;;;;;;;5075881;28;20468;-74
2020/12/19 03:10:46;;;;;;;23.67;17.07;;;;;;;;;;5075580;28;20463;-74
2020/12/19 03:13:14;;;;;;;24.53;15.90;;;;;;;;;;5075820;28;20859;-73
2020/12/19 03:15:41;;;;;;;20.77;13.80;;;;;;;;;;5076181;28;20460;-74
2020/12/19 03:18:09;;;;;;;23.27;14.97;;;;;;;;;;5076320;28;20905;-73
2020/12/19 03:20:36;;;;;;;23.10;15.07;;;;;;;;;;5078388;28;20453;-75
2020/12/19 03:23:05;;;;;;;22.13;14.63;;;;;;;;;;5079479;28;20460;-73
2020/12/19 03:25:32;;;;;;;24.90;16.53;;;;;;;;;;5079597;28;20464;-74
2020/12/19 03:27:59;;;;;;;21.97;16.27;;;;;;;;;;5078915;28;20468;-74
2020/12/19 03:30:28;;;;;;;22.57;14.70;;;;;;;;;;5079150;28;20464;-73
2020/12/19 03:32:56;;;;;;;24.80;15.20;;;;;;;;;;5078530;28;20520;-73
2020/12/19 03:35:24;;;;;;;21.03;14.57;;;;;;;;;;5079712;28;20461;-74
2020/12/19 03:37:52;;;;;;;20.10;15.20;;;;;;;;;;5093577;28;20506;-74
2020/12/19 03:40:19;;;;;;;26.10;15.27;;;;;;;;;;5099191;28;20538;-74
2020/12/19 03:42:47;;;;;;;22.27;15.47;;;;;;;;;;5099638;28;20459;-74
2020/12/19 03:45:14;;;;;;;22.93;16.13;;;;;;;;;;5098817;28;20490;-74
2020/12/19 03:47:42;;;;;;;22.87;15.47;;;;;;;;;;5099710;28;20845;-73
2020/12/19 03:50:09;;;;;;;26.53;16.80;;;;;;;;;;5099176;28;20876;-73
2020/12/19 03:52:37;;;;;;;23.53;15.63;;;;;;;;;;5098848;28;20910;-74
2020/12/19 03:55:04;;;;;;;26.93;15.20;;;;;;;;;;5098650;28;20468;-73
2020/12/19 03:57:32;;;;;;;23.40;15.70;;;;;;;;;;5099059;28;20483;-74
2020/12/19 03:59:59;;;;;;;23.60;15.87;;;;;;;;;;5098891;28;20464;-74
2020/12/19 04:02:26;;;;;;;24.50;15.67;;;;;;;;;;5098804;28;20452;-74
2020/12/19 04:04:54;;;;;;;22.00;15.10;;;;;;;;;;5098310;28;20467;-74
2020/12/19 04:07:22;;;;;;;24.90;15.10;;;;;;;;;;5098183;28;20780;-74
2020/12/19 04:09:49;;;;;;;29.60;16.00;;;;;;;;;;5097373;28;20884;-73
2020/12/19 04:12:17;;;;;;;25.70;15.83;;;;;;;;;;5097965;28;20871;-74
2020/12/19 04:14:44;;;;;;;25.77;16.70;;;;;;;;;;5098864;28;20543;-73
2020/12/19 04:17:12;;;;;;;26.80;16.27;;;;;;;;;;5098717;28;20458;-73
2020/12/19 04:19:39;;;;;;;23.70;14.93;;;;;;;;;;5098367;28;20464;-74
2020/12/19 04:22:08;;;;;;;25.33;16.50;;;;;;;;;;5098057;28;20452;-74
2020/12/19 04:24:35;;;;;;;24.43;15.43;;;;;;;;;;5098923;28;20464;-74
2020/12/19 04:27:02;;;;;;;25.50;16.30;;;;;;;;;;5098466;28;20456;-73
2020/12/19 04:29:31;;;;;;;21.97;14.80;;;;;;;;;;5098507;28;20463;-74
2020/12/19 04:31:58;;;;;;;31.70;17.40;;;;;;;;;;5097568;28;20452;-74
2020/12/19 04:34:26;;;;;;;22.80;14.80;;;;;;;;;;5098352;28;20502;-74
2020/12/19 04:36:53;;;;;;;22.83;14.23;;;;;;;;;;5098408;28;20736;-74
2020/12/19 04:39:21;;;;;;;27.27;15.33;;;;;;;;;;5097427;28;20911;-74
2020/12/19 04:41:49;;;;;;;25.73;15.47;;;;;;;;;;5098202;28;20448;-74
2020/12/19 04:44:16;;;;;;;28.67;15.10;;;;;;;;;;5098657;28;20459;-74
2020/12/19 04:46:44;;;;;;;21.77;15.27;;;;;;;;;;5097963;28;20467;-74
2020/12/19 04:49:12;;;;;;;23.10;16.33;;;;;;;;;;5098128;28;20500;-73
2020/12/19 04:51:40;;;;;;;27.73;16.20;;;;;;;;;;5098185;28;20452;-74
2020/12/19 04:54:07;;;;;;;23.70;15.43;;;;;;;;;;5096638;28;20928;-73
2020/12/19 04:56:35;;;;;;;21.37;14.53;;;;;;;;;;5097546;28;20487;-73
2020/12/19 04:59:04;;;;;;;21.73;14.00;;;;;;;;;;5098002;28;20492;-73
2020/12/19 05:01:31;;;;;;;23.53;15.37;;;;;;;;;;5097652;28;20456;-73
2020/12/19 05:03:58;;;;;;;21.80;15.03;;;;;;;;;;5097225;28;20463;-73
2020/12/19 05:06:26;;;;;;;23.10;15.00;;;;;;;;;;5097302;28;20448;-73
2020/12/19 05:08:54;;;;;;;25.23;14.30;;;;;;;;;;5097101;28;20468;-73
2020/12/19 05:11:22;;;;;;;23.00;15.70;;;;;;;;;;5097359;28;20448;-73
2020/12/19 05:13:50;;;;;;;23.80;14.50;;;;;;;;;;5097627;28;20734;-73
2020/12/19 05:16:18;;;;;;;19.33;14.23;;;;;;;;;;5098032;28;20738;-74
2020/12/19 05:18:45;;;;;;;24.07;15.13;;;;;;;;;;5097465;28;20554;-73
2020/12/19 05:21:13;;;;;;;25.57;16.27;;;;;;;;;;5097439;28;20464;-74
2020/12/19 05:23:42;;;;;;;23.53;14.77;;;;;;;;;;5097086;28;20456;-73
2020/12/19 05:26:09;;;;;;;21.20;15.13;;;;;;;;;;5097524;28;20526;-73
2020/12/19 05:28:38;;;;;;;21.40;13.90;;;;;;;;;;5097064;28;20549;-73
2020/12/19 05:31:06;;;;;;;25.30;13.40;;;;;;;;;;5096786;28;20920;-73
2020/12/19 05:33:34;;;;;;;19.00;13.93;;;;;;;;;;5096933;28;20852;-73
2020/12/19 05:36:01;;;;;;;23.87;14.10;;;;;;;;;;5096803;28;20462;-73
2020/12/19 05:38:30;;;;;;;20.37;14.67;;;;;;;;;;5096911;28;20491;-73
2020/12/19 05:40:57;;;;;;;22.53;15.20;;;;;;;;;;5097061;28;20456;-73
2020/12/19 05:43:25;;;;;;;24.00;14.90;;;;;;;;;;5096819;28;20729;-73
2020/12/19 05:45:52;;;;;;;21.67;15.30;;;;;;;;;;5096716;28;20533;-73
2020/12/19 05:48:20;;;;;;;25.53;15.20;;;;;;;;;;5096609;28;20732;-73
2020/12/19 05:50:47;;;;;;;24.50;14.93;;;;;;;;;;5097425;28;20449;-73
2020/12/19 05:53:16;;;;;;;24.03;15.27;;;;;;;;;;5096923;28;20471;-73
2020/12/19 05:55:44;;;;;;;21.37;14.40;;;;;;;;;;5096400;28;20467;-74
2020/12/19 05:58:11;;;;;;;20.10;13.27;;;;;;;;;;5096410;28;20571;-73
2020/12/19 06:00:39;;;;;;;18.00;11.87;;;;;;;;;;5096848;28;20479;-73
2020/12/19 06:03:07;;;;;;;21.27;14.10;;;;;;;;;;5096331;28;20462;-73
2020/12/19 06:05:35;;;;;;;21.83;14.20;;;;;;;;;;5096579;28;20594;-73
2020/12/19 06:08:02;;;;;;;25.10;13.60;;;;;;;;;;5095954;28;20525;-73
2020/12/19 06:10:32;;;;;;;23.60;14.83;;;;;;;;;;5096228;28;20492;-73
2020/12/19 06:13:03;;;;;;;20.50;14.27;;;;;;;;;;5096080;28;20780;-73
2020/12/19 06:15:48;;;;;;;22.43;13.87;;;;;;;;;;5094171;28;20729;-73
2020/12/19 06:18:21;;;;;;;24.73;13.43;;;;;;;;;;5076423;28;20504;-73
2020/12/19 06:20:49;;;;;;;23.23;14.40;;;;;;;;;;5076228;28;20453;-73
2020/12/19 06:23:17;;;;;;;22.93;13.87;;;;;;;;;;5076297;28;20481;-73
2020/12/19 06:25:45;;;;;;;19.00;12.60;;;;;;;;;;5076382;28;20453;-73
2020/12/19 06:28:13;;;;;;;20.60;13.60;;;;;;;;;;5076407;28;20484;-73
2020/12/19 06:30:40;;;;;;;21.40;14.23;;;;;;;;;;5076181;28;20868;-73
2020/12/19 06:33:11;;;;;;;21.03;12.93;;;;;;;;;;5076679;28;20457;-73
2020/12/19 06:35:39;;;;;;;19.83;13.93;;;;;;;;;;5075086;28;20475;-73
2020/12/19 06:38:07;;;;;;;20.40;14.60;;;;;;;;;;5079711;28;20954;-73
2020/12/19 06:40:41;;;;;;;23.50;14.70;;;;;;;;;;5075791;28;20688;-73
2020/12/19 06:43:12;;;;;;;24.10;14.90;;;;;;;;;;5075735;28;20457;-73
2020/12/19 06:45:39;;;;;;;21.30;14.40;;;;;;;;;;5076019;28;20784;-73
2020/12/19 06:48:21;;;;;;;25.17;14.27;;;;;;;;;;5075496;28;20909;-74
2020/12/19 06:50:58;;;;;;;20.10;14.23;;;;;;;;;;5075871;28;20461;-74
2020/12/19 06:53:28;;;;;;;20.30;14.10;;;;;;;;;;5076916;28;20456;-74
2020/12/19 06:56:01;;;;;;;18.60;13.37;;;;;;;;;;5082232;28;20448;-72
2020/12/19 06:58:38;;;;;;;23.00;13.67;;;;;;;;;;5080023;28;20728;-74
2020/12/19 07:01:27;;;;;;;23.73;13.27;;;;;;;;;;5086827;28;20447;-74
2020/12/19 07:03:55;;;;;;;22.37;13.87;;;;;;;;;;5100033;28;20864;-74
2020/12/19 07:06:24;;;;;;;20.70;13.80;;;;;;;;;;5093974;28;20452;-74
2020/12/19 07:08:53;;;;;;;20.63;14.07;;;;;;;;;;5083315;28;20460;-73
2020/12/19 07:11:37;;;;;;;21.97;14.40;;;;;;;;;;5079400;28;20456;-74
2020/12/19 07:14:05;;;;;;;21.30;14.70;;;;;;;;;;5079510;28;20507;-73
2020/12/19 07:16:48;;;;;;;22.67;13.30;;;;;;;;;;5079294;28;20457;-74
2020/12/19 07:19:19;;;;;;;23.43;14.40;;;;;;;;;;5079174;28;20492;-74
2020/12/19 07:21:47;;;;;;;22.37;15.27;;;;;;;;;;5078974;28;20530;-73
2020/12/19 07:24:15;;;;;;;19.80;14.00;;;;;;;;;;5080024;28;20453;-74
2020/12/19 07:26:42;;;;;;;21.90;14.40;;;;;;;;;;5080155;28;20457;-73
2020/12/19 07:29:13;;;;;;;24.20;14.83;;;;;;;;;;5079197;28;20762;-74
2020/12/19 07:31:44;;;;;;;20.10;14.13;;;;;;;;;;5079644;28;20457;-73
2020/12/19 07:34:11;;;;;;;18.47;14.20;;;;;;;;;;5078739;28;20538;-73
2020/12/19 07:36:40;;;;;;;22.20;15.50;;;;;;;;;;5079392;28;20527;-74
2020/12/19 07:39:07;;;;;;;24.93;16.10;;;;;;;;;;5080335;28;20758;-74
2020/12/19 07:41:36;;;;;;;20.33;14.80;;;;;;;;;;5098893;28;20482;-74
2020/12/19 07:44:13;;;;;;;23.43;14.20;;;;;;;;;;5099185;28;20522;-74
2020/12/19 07:46:51;;;;;;;19.70;13.97;;;;;;;;;;5098304;28;20456;-74
2020/12/19 07:49:25;;;;;;;22.07;15.60;;;;;;;;;;5096812;28;20848;-74
2020/12/19 07:52:03;;;;;;;21.40;13.97;;;;;;;;;;5078998;28;20456;-74
2020/12/19 07:54:30;;;;;;;21.77;15.63;;;;;;;;;;5078566;28;20943;-74
2020/12/19 07:56:59;;;;;;;22.73;16.53;;;;;;;;;;5085083;28;20731;-74
2020/12/19 07:59:27;;;;;;;23.50;14.27;;;;;;;;;;5098431;28;20487;-74
2020/12/19 08:01:54;;;;;;;21.10;14.83;;;;;;;;;;5098120;28;20466;-74
2020/12/19 08:04:22;;;;;;;24.83;16.03;;;;;;;;;;5098280;28;20533;-74
2020/12/19 08:06:49;;;;;;;23.50;15.63;;;;;;;;;;5096477;28;20459;-74
2020/12/19 08:09:22;;;;;;;21.63;15.30;;;;;;;;;;5086391;28;20734;-74
2020/12/19 08:11:50;;;;;;;21.60;14.60;;;;;;;;;;5078017;28;20461;-74
2020/12/19 08:14:18;;;;;;;25.27;16.47;;;;;;;;;;5078204;28;20465;-74
2020/12/19 08:16:46;;;;;;;23.33;16.70;;;;;;;;;;5078029;28;20457;-74
2020/12/19 08:19:16;;;;;;;21.87;14.93;;;;;;;;;;5077807;28;20587;-73
2020/12/19 08:21:44;;;;;;;22.43;15.63;;;;;;;;;;5081713;28;20507;-74
2020/12/19 08:24:13;;;;;;;23.90;14.73;;;;;;;;;;5089482;28;20449;-74
2020/12/19 08:26:45;;;;;;;22.70;16.70;;;;;;;;;;5075143;28;20460;-73
2020/12/19 08:29:13;;;;;;;27.60;16.60;;;;;;;;;;5062581;28;20467;-73
2020/12/19 08:31:41;;;;;;;23.30;16.00;;;;;;;;;;5076894;28;20800;-73
2020/12/19 08:34:11;;;;;;;23.47;15.00;;;;;;;;;;5078193;28;20477;-73
2020/12/19 08:36:46;;;;;;;22.93;15.30;;;;;;;;;;5076784;28;20453;-73
2020/12/19 08:39:24;;;;;;;22.30;16.97;;;;;;;;;;5076755;28;20570;-74
2020/12/19 08:41:51;;;;;;;23.50;16.90;;;;;;;;;;5087492;28;20463;-74
2020/12/19 08:44:25;;;;;;;22.60;15.37;;;;;;;;;;5076918;28;20473;-74
2020/12/19 08:47:04;;;;;;;22.60;16.50;;;;;;;;;;5082514;28;20555;-73
2020/12/19 08:49:31;;;;;;;21.70;15.67;;;;;;;;;;5111943;28;20541;-73
2020/12/19 08:51:58;;;;;;;21.63;15.33;;;;;;;;;;5093329;28;23154;-73
2020/12/19 08:54:28;;;;;;;27.00;16.10;;;;;;;;;;5076356;28;20590;-74
2020/12/19 08:57:08;;;;;;;19.43;14.93;;;;;;;;;;5079943;28;20789;-73
2020/12/19 08:59:41;;;;;;;20.40;15.20;;;;;;;;;;5098539;28;20512;-73
2020/12/19 09:02:16;;;;;;;23.97;16.90;;;;;;;;;;5080806;28;20863;-73
2020/12/19 09:04:51;;;;;;;21.20;14.43;;;;;;;;;;5088132;28;20464;-73
2020/12/19 09:07:19;;;;;;;20.57;13.87;;;;;;;;;;5082698;28;20439;-72
2020/12/19 09:09:46;;;;;;;18.83;13.00;;;;;;;;;;5097187;28;20456;-73
2020/12/19 09:12:14;;;;;;;19.87;14.30;;;;;;;;;;5091750;28;20902;-73
2020/12/19 09:14:42;;;;;;;20.37;14.20;;;;;;;;;;5118663;28;20523;-72
2020/12/19 09:17:11;;;;;;;19.53;14.20;;;;;;;;;;5116371;28;20439;-72
2020/12/19 09:19:41;;;;;;;19.03;13.43;;;;;;;;;;5090970;28;20496;-72
2020/12/19 09:22:11;;;;;;;19.27;13.90;;;;;;;;;;5078225;28;20881;-72
2020/12/19 09:24:40;;;;;;;22.17;14.40;;;;;;;;;;5083966;28;20471;-73
2020/12/19 09:27:09;;;;;;;18.20;12.87;;;;;;;;;;5076920;28;20483;-72
2020/12/19 09:29:36;;;;;;;23.57;15.63;;;;;;;;;;5075958;28;20471;-72
2020/12/19 09:32:03;;;;;;;22.57;13.80;;;;;;;;;;5075276;28;20461;-73
2020/12/19 09:34:32;;;;;;;19.90;14.07;;;;;;;;;;5088154;28;20452;-72
2020/12/19 09:36:59;;;;;;;18.23;13.33;;;;;;;;;;5096368;28;20784;-73
2020/12/19 09:39:27;;;;;;;18.80;14.27;;;;;;;;;;5089727;28;20527;-72
2020/12/19 09:41:54;;;;;;;18.80;13.10;;;;;;;;;;5076383;28;20472;-73
2020/12/19 09:44:21;;;;;;;19.13;13.30;;;;;;;;;;5076231;28;20488;-72
2020/12/19 09:46:51;;;;;;;18.63;13.77;;;;;;;;;;5083594;28;20525;-73
2020/12/19 09:49:18;;;;;;;20.20;14.40;;;;;;;;;;5096030;28;20460;-73
2020/12/19 09:51:47;;;;;;;17.67;12.43;;;;;;;;;;5096543;28;20453;-73
2020/12/19 09:54:17;;;;;;;16.33;11.20;;;;;;;;;;5095859;28;20471;-72
2020/12/19 09:56:45;;;;;;;17.07;11.50;;;;;;;;;;5096595;28;20529;-74
2020/12/19 09:59:12;;;;;;;26.10;13.00;;;;;;;;;;5078077;28;20496;-73
2020/12/19 10:01:40;;;;;;;16.17;12.07;;;;;;;;;;5076040;28;20985;-73
2020/12/19 10:04:07;;;;;;;14.50;11.33;;;;;;;;;;5075892;28;20480;-73
2020/12/19 10:06:35;;;;;;;16.53;12.60;;;;;;;;;;5075760;28;20456;-73
2020/12/19 10:09:03;;;;;;;19.33;14.10;;;;;;;;;;5076701;28;20469;-73
2020/12/19 10:11:30;;;;;;;16.80;12.83;;;;;;;;;;5075620;28;20547;-73
2020/12/19 10:14:01;;;;;;;18.20;12.90;;;;;;;;;;5075726;28;20483;-73
2020/12/19 10:16:34;;;;;;;15.73;11.90;;;;;;;;;;5074694;28;20476;-72
2020/12/19 10:19:01;;;;;;;21.40;12.83;;;;;;;;;;5075781;28;20473;-73
2020/12/19 10:21:38;;;;;;;17.07;12.40;;;;;;;;;;5095121;28;20467;-74
2020/12/19 10:24:06;;;;;;;16.53;12.10;;;;;;;;;;5095636;28;20462;-73
2020/12/19 10:26:33;;;;;;;15.17;10.70;;;;;;;;;;5092827;28;20452;-73
2020/12/19 10:29:01;;;;;;;16.50;12.77;;;;;;;;;;5078471;28;20740;-73
2020/12/19 10:31:29;;;;;;;16.57;11.70;;;;;;;;;;5078740;28;20457;-73
2020/12/19 10:33:58;;;;;;;16.60;11.60;;;;;;;;;;5079054;28;20468;-73
2020/12/19 10:36:27;;;;;;;13.63;11.07;;;;;;;;;;5079137;28;20464;-73
2020/12/19 10:38:54;;;;;;;14.40;10.90;;;;;;;;;;5080377;28;20489;-73
2020/12/19 10:41:23;;;;;;;17.00;11.87;;;;;;;;;;5079998;28;20880;-73
2020/12/19 10:43:51;;;;;;;15.90;11.00;;;;;;;;;;5079245;28;20743;-74
2020/12/19 10:46:22;;;;;;;12.63;9.80;;;;;;;;;;5078407;28;20846;-74
2020/12/19 10:48:49;;;;;;;16.17;11.13;;;;;;;;;;5077954;28;20466;-74
2020/12/19 10:51:17;;;;;;;16.00;10.17;;;;;;;;;;5077322;28;20459;-74
2020/12/19 10:53:47;;;;;;;15.00;11.43;;;;;;;;;;5077726;28;20465;-73
2020/12/19 10:56:18;;;;;;;13.50;9.10;;;;;;;;;;5090136;28;20460;-73
2020/12/19 10:58:48;;;;;;;13.20;9.63;;;;;;;;;;5091288;28;20583;-74
2020/12/19 11:01:18;;;;;;;11.63;9.77;;;;;;;;;;5098973;28;20455;-73
2020/12/19 11:03:47;;;;;;;14.20;9.97;;;;;;;;;;5099020;28;20922;-73
2020/12/19 11:06:20;;;;;;;14.90;10.67;;;;;;;;;;5084901;28;20461;-75
2020/12/19 11:08:48;;;;;;;12.50;9.67;;;;;;;;;;5077143;28;21070;-74
2020/12/19 11:11:18;;;;;;;13.30;9.30;;;;;;;;;;5076063;28;20923;-74
2020/12/19 11:13:47;;;;;;;13.17;9.77;;;;;;;;;;5091846;28;20468;-74
2020/12/19 11:16:23;;;;;;;13.67;9.77;;;;;;;;;;5092604;28;20463;-73
2020/12/19 11:18:50;;;;;;;12.50;9.80;;;;;;;;;;5090698;28;20492;-73
2020/12/19 11:21:17;;;;;;;12.40;8.73;;;;;;;;;;5078083;28;20458;-74
2020/12/19 11:23:49;;;;;;;12.50;9.50;;;;;;;;;;5078422;28;20456;-74
2020/12/19 11:26:21;;;;;;;13.20;9.00;;;;;;;;;;5087679;28;20542;-75
2020/12/19 11:28:55;;;;;;;14.20;9.23;;;;;;;;;;5078163;28;20464;-75
2020/12/19 11:31:28;;;;;;;11.63;9.90;;;;;;;;;;5079154;28;20480;-73
2020/12/19 11:34:12;;;;;;;14.40;10.53;;;;;;;;;;5081145;28;20465;-73
2020/12/19 11:36:40;;;;;;;14.70;9.40;;;;;;;;;;5080464;28;20459;-73
2020/12/19 11:39:11;;;;;;;14.57;10.03;;;;;;;;;;5077719;28;20987;-75
2020/12/19 11:41:39;;;;;;;12.93;9.80;;;;;;;;;;5084866;28;20494;-73
2020/12/19 11:44:08;;;;;;;13.77;9.33;;;;;;;;;;5098565;28;20460;-74
2020/12/19 11:46:37;;;;;;;12.10;8.90;;;;;;;;;;5081960;28;20456;-74
2020/12/19 11:49:05;;;;;;;10.87;8.67;;;;;;;;;;5081919;28;20565;-74
2020/12/19 11:51:34;;;;;;;11.73;9.40;;;;;;;;;;5080160;28;20531;-74
2020/12/19 11:54:05;;;;;;;11.17;9.00;;;;;;;;;;5077909;28;20459;-73
2020/12/19 11:56:33;;;;;;;14.13;10.77;;;;;;;;;;5076809;28;20468;-73
2020/12/19 11:59:00;;;;;;;12.47;9.10;;;;;;;;;;5077475;28;20493;-72
2020/12/19 12:01:29;;;;;;;10.47;8.63;;;;;;;;;;5076725;28;20468;-74
2020/12/19 12:03:57;;;;;;;10.40;8.30;;;;;;;;;;5077526;28;21067;-74
2020/12/19 12:06:28;;;;;;;12.57;9.17;;;;;;;;;;5077573;28;20457;-73
2020/12/19 12:09:01;;;;;;;12.03;8.87;;;;;;;;;;5087374;28;20962;-74
2020/12/19 12:11:29;;;;;;;11.03;8.73;;;;;;;;;;5096646;28;20463;-74
2020/12/19 12:13:56;;;;;;;13.13;8.83;;;;;;;;;;5095714;28;20466;-74
2020/12/19 12:16:25;;;;;;;11.27;7.80;;;;;;;;;;5088795;28;20448;-74
2020/12/19 12:18:54;;;;;;;11.30;9.00;;;;;;;;;;5093768;28;20538;-74
2020/12/19 12:21:21;;;;;;;11.50;8.63;;;;;;;;;;5076846;28;20457;-73
2020/12/19 12:23:49;;;;;;;10.83;8.73;;;;;;;;;;5078058;28;20534;-73
2020/12/19 12:26:26;;;;;;;10.57;8.00;;;;;;;;;;5079357;28;20465;-74
2020/12/19 12:28:56;;;;;;;11.80;8.40;;;;;;;;;;5078835;28;20551;-74
2020/12/19 12:31:30;;;;;;;15.87;9.00;;;;;;;;;;5077276;28;20538;-74
2020/12/19 12:34:01;;;;;;;17.33;8.53;;;;;;;;;;5077890;28;20457;-74
2020/12/19 12:36:30;;;;;;;11.00;7.70;;;;;;;;;;5075847;28;20456;-74
2020/12/19 12:39:00;;;;;;;10.43;8.10;;;;;;;;;;5075142;28;20500;-74
2020/12/19 12:41:28;;;;;;;13.13;8.77;;;;;;;;;;5086282;28;20456;-73
2020/12/19 12:43:56;;;;;;;11.67;7.40;;;;;;;;;;5096190;28;20456;-74
2020/12/19 12:46:23;;;;;;;11.53;8.20;;;;;;;;;;5085594;28;20469;-73
2020/12/19 12:48:50;;;;;;;11.87;7.63;;;;;;;;;;5077553;28;20473;-73
2020/12/19 12:51:22;;;;;;;10.10;8.03;;;;;;;;;;5094142;28;20734;-75
2020/12/19 12:53:51;;;;;;;11.57;9.10;;;;;;;;;;5096602;28;20456;-74
2020/12/19 12:56:24;;;;;;;15.10;8.00;;;;;;;;;;5096364;28;20459;-73
2020/12/19 12:58:51;;;;;;;15.30;7.93;;;;;;;;;;5096369;28;20483;-73
2020/12/19 13:01:21;;;;;;;8.87;7.73;;;;;;;;;;5081147;28;20484;-74
2020/12/19 13:03:48;;;;;;;12.37;7.93;;;;;;;;;;5076383;28;20463;-74
2020/12/19 13:06:16;;;;;;;10.93;8.17;;;;;;;;;;5075355;28;20502;-74
2020/12/19 13:08:46;;;;;;;13.23;9.60;;;;;;;;;;5082733;28;20849;-73
2020/12/19 13:11:13;;;;;;;10.37;8.00;;;;;;;;;;5092307;28;20554;-73
2020/12/19 13:13:41;;;;;;;10.40;7.70;;;;;;;;;;5095005;28;20498;-73
2020/12/19 13:16:09;;;;;;;10.47;7.57;;;;;;;;;;5077133;28;20495;-73
2020/12/19 13:18:36;;;;;;;13.50;7.00;;;;;;;;;;5076134;28;20489;-73
2020/12/19 13:21:04;;;;;;;9.70;7.87;;;;;;;;;;5076737;28;20464;-74
2020/12/19 13:23:31;;;;;;;10.67;8.10;;;;;;;;;;5085520;28;20449;-73
2020/12/19 13:26:00;;;;;;;9.17;7.23;;;;;;;;;;5091370;28;20467;-74
2020/12/19 13:28:30;;;;;;;9.70;7.13;;;;;;;;;;5088801;28;20529;-73
2020/12/19 13:30:58;;;;;;;10.30;7.53;;;;;;;;;;5085201;28;20521;-74
2020/12/19 13:33:30;;;;;;;10.87;6.90;;;;;;;;;;5076048;28;20453;-74
2020/12/19 13:35:57;;;;;;;11.13;7.57;;;;;;;;;;5076677;28;20453;-73
2020/12/19 13:38:25;;;;;;;11.80;7.60;;;;;;;;;;5074075;28;20503;-73
2020/12/19 13:40:52;;;;;;;10.90;6.90;;;;;;;;;;5075056;28;20454;-74
2020/12/19 13:43:20;;;;;;;9.13;6.60;;;;;;;;;;5074293;28;20459;-73
2020/12/19 13:45:47;;;;;;;7.57;5.97;;;;;;;;;;5074735;28;20740;-73
2020/12/19 13:48:15;;;;;;;9.03;6.70;;;;;;;;;;5074620;28;20465;-73
2020/12/19 13:50:42;;;;;;;10.23;6.33;;;;;;;;;;5080376;28;20456;-72
2020/12/19 13:53:12;;;;;;;8.87;6.20;;;;;;;;;;5095369;28;20464;-75
2020/12/19 13:55:39;;;;;;;8.10;6.47;;;;;;;;;;5095097;28;20460;-72
2020/12/19 13:58:20;;;;;;;11.07;6.60;;;;;;;;;;5076213;28;20924;-73
2020/12/19 14:00:48;;;;;;;9.33;6.07;;;;;;;;;;5075566;28;20452;-73
2020/12/19 14:03:18;;;;;;;7.10;5.60;;;;;;;;;;5075450;28;20459;-74
2020/12/19 14:05:45;;;;;;;7.90;5.90;;;;;;;;;;5085882;28;20455;-73
2020/12/19 14:08:13;;;;;;;10.83;7.20;;;;;;;;;;5085408;28;20475;-73
2020/12/19 14:10:54;;;;;;;8.00;6.27;;;;;;;;;;5092781;28;20460;-73
2020/12/19 14:13:21;;;;;;;9.00;7.20;;;;;;;;;;5089649;28;20436;-73
2020/12/19 14:15:52;;;;;;;9.07;6.63;;;;;;;;;;5075770;28;20469;-75
2020/12/19 14:18:30;;;;;;;10.10;7.27;;;;;;;;;;5083953;28;21046;-71
2020/12/19 14:20:59;;;;;;;10.57;6.63;;;;;;;;;;5092072;28;20860;-74
2020/12/19 14:23:46;;;;;;;8.53;6.47;;;;;;;;;;5094109;28;20453;-74
2020/12/19 14:26:20;;;;;;;13.57;7.10;;;;;;;;;;5093561;28;20478;-73
2020/12/19 14:29:04;;;;;;;10.37;6.50;;;;;;;;;;5074289;28;20859;-73
2020/12/19 14:31:39;;;;;;;9.07;6.43;;;;;;;;;;5073908;28;20464;-74